Impacts METAR Board INFO
IDs:

KTPA - Tampa Intl Arpt, FL, US

Updated at: 2228 UTC 13 Dec 2017
Potential Impact None Slight Moderate High
Time13/10Z 13/11Z 13/12Z 13/13Z 13/14Z 13/15Z 13/16Z 13/17Z 13/18Z 13/19Z 13/20Z 13/21Z 13/22Z
VIS10 10 10 10 10 10 10 10 10 10 10 10 10
CIG-- -- -- -- -- -- -- -- -- -- -- -- --
CoverCLRCLRCLRCLRCLRCLRCLRFEWFEWFEWFEWFEWFEW
FltCatVFRVFRVFRVFRVFRVFRVFRVFRVFRVFRVFRVFRVFR
WX--------------------------
WDir3603601010103603200250250270260290
WSpd5 6 5 5 7 10 9 0 8 8 9 9 7
WGst-- -- -- -- -- -- -- -- -- -- -- -- --
Raw hourly METARs
KTPA 130953Z 36005KT 10SM CLR 10/04 A3006 RMK AO2 SLP180 T01000039
KTPA 131053Z 36006KT 10SM CLR 09/04 A3009 RMK AO2 SLP188 T00940039
KTPA 131153Z 01005KT 10SM CLR 09/03 A3011 RMK AO2 SLP196 T00940033 10122 20094 53019
KTPA 131253Z 01005KT 10SM CLR 10/03 A3013 RMK AO2 SLP203 T01000028
KTPA 131353Z 01007KT 10SM CLR 12/02 A3016 RMK AO2 SLP211 T01170022
KTPA 131453Z 36010KT 10SM CLR 13/00 A3017 RMK AO2 SLP216 T01330000 51021
KTPA 131553Z 32009KT 10SM CLR 14/M01 A3017 RMK AO2 SLP216 T01441006
KTPA 131653Z 00000KT 10SM FEW250 16/01 A3014 RMK AO2 SLP206 T01560011
KTPA 131753Z 25008KT 10SM FEW250 16/04 A3010 RMK AO2 SLP193 T01560039 10167 20089 58023
KTPA 131853Z 25008KT 10SM FEW250 17/01 A3008 RMK AO2 SLP186 T01670011
KTPA 131953Z 27009KT 10SM FEW300 17/M02 A3007 RMK AO2 SLP183 T01671017
KTPA 132053Z 26009KT 10SM FEW250 FEW320 16/02 A3007 RMK AO2 SLP182 T01610017 56010
KTPA 132153Z 29007KT 10SM FEW250 FEW320 15/01 A3008 RMK AO2 SLP187 T01500006